sensor_id;sensor_type;location;lat;lon;timestamp;P1;durP1;ratioP1;P2;durP2;ratioP2
22603;SDS011;11469;49.024;8.246;2022-11-03T00:02:11;11.55;;;4.20;;
22603;SDS011;11469;49.024;8.246;2022-11-03T00:04:36;11.07;;;3.78;;
22603;SDS011;11469;49.024;8.246;2022-11-03T00:07:01;10.65;;;3.33;;
22603;SDS011;11469;49.024;8.246;2022-11-03T00:09:27;16.58;;;4.10;;
22603;SDS011;11469;49.024;8.246;2022-11-03T00:11:52;14.10;;;4.35;;
22603;SDS011;11469;49.024;8.246;2022-11-03T00:14:18;13.15;;;3.70;;
22603;SDS011;11469;49.024;8.246;2022-11-03T00:16:44;12.65;;;3.55;;
22603;SDS011;11469;49.024;8.246;2022-11-03T00:19:10;12.10;;;4.00;;
22603;SDS011;11469;49.024;8.246;2022-11-03T00:21:38;8.38;;;3.53;;
22603;SDS011;11469;49.024;8.246;2022-11-03T00:24:03;11.45;;;3.67;;
22603;SDS011;11469;49.024;8.246;2022-11-03T00:26:30;7.85;;;2.90;;
22603;SDS011;11469;49.024;8.246;2022-11-03T00:29:01;10.13;;;3.80;;
22603;SDS011;11469;49.024;8.246;2022-11-03T00:31:38;12.00;;;3.20;;
22603;SDS011;11469;49.024;8.246;2022-11-03T00:34:07;11.25;;;3.15;;
22603;SDS011;11469;49.024;8.246;2022-11-03T00:36:34;20.40;;;3.30;;
22603;SDS011;11469;49.024;8.246;2022-11-03T00:39:02;16.48;;;3.78;;
22603;SDS011;11469;49.024;8.246;2022-11-03T00:41:28;8.85;;;3.60;;
22603;SDS011;11469;49.024;8.246;2022-11-03T00:43:53;11.10;;;3.85;;
22603;SDS011;11469;49.024;8.246;2022-11-03T00:46:20;8.57;;;3.45;;
22603;SDS011;11469;49.024;8.246;2022-11-03T00:48:46;11.23;;;3.35;;
22603;SDS011;11469;49.024;8.246;2022-11-03T00:51:13;11.93;;;5.45;;
22603;SDS011;11469;49.024;8.246;2022-11-03T00:56:11;19.38;;;6.47;;
22603;SDS011;11469;49.024;8.246;2022-11-03T00:58:38;18.65;;;4.07;;
22603;SDS011;11469;49.024;8.246;2022-11-03T01:01:09;12.30;;;4.50;;
22603;SDS011;11469;49.024;8.246;2022-11-03T01:03:38;13.32;;;4.63;;
22603;SDS011;11469;49.024;8.246;2022-11-03T01:06:08;14.07;;;5.60;;
22603;SDS011;11469;49.024;8.246;2022-11-03T01:08:54;10.43;;;4.05;;
22603;SDS011;11469;49.024;8.246;2022-11-03T01:11:21;14.48;;;3.75;;
22603;SDS011;11469;49.024;8.246;2022-11-03T01:14:07;10.80;;;3.83;;
22603;SDS011;11469;49.024;8.246;2022-11-03T01:16:37;11.20;;;3.05;;
22603;SDS011;11469;49.024;8.246;2022-11-03T01:19:03;9.13;;;3.75;;
22603;SDS011;11469;49.024;8.246;2022-11-03T01:21:29;13.15;;;3.50;;
22603;SDS011;11469;49.024;8.246;2022-11-03T01:23:55;9.88;;;3.45;;
22603;SDS011;11469;49.024;8.246;2022-11-03T01:26:21;15.68;;;3.60;;
22603;SDS011;11469;49.024;8.246;2022-11-03T01:28:46;12.27;;;3.47;;
22603;SDS011;11469;49.024;8.246;2022-11-03T01:31:16;8.77;;;3.10;;
22603;SDS011;11469;49.024;8.246;2022-11-03T01:33:44;10.43;;;3.42;;
22603;SDS011;11469;49.024;8.246;2022-11-03T01:36:10;13.63;;;3.30;;
22603;SDS011;11469;49.024;8.246;2022-11-03T01:38:37;8.48;;;2.88;;
22603;SDS011;11469;49.024;8.246;2022-11-03T01:41:03;7.93;;;2.83;;
22603;SDS011;11469;49.024;8.246;2022-11-03T01:43:31;7.50;;;3.40;;
22603;SDS011;11469;49.024;8.246;2022-11-03T01:48:35;16.15;;;4.07;;
22603;SDS011;11469;49.024;8.246;2022-11-03T01:51:05;8.18;;;2.92;;
22603;SDS011;11469;49.024;8.246;2022-11-03T01:53:31;11.10;;;3.63;;
22603;SDS011;11469;49.024;8.246;2022-11-03T01:55:59;5.65;;;2.90;;
22603;SDS011;11469;49.024;8.246;2022-11-03T01:58:28;6.13;;;2.67;;
22603;SDS011;11469;49.024;8.246;2022-11-03T02:00:56;6.15;;;3.10;;
22603;SDS011;11469;49.024;8.246;2022-11-03T02:03:24;13.93;;;3.40;;
22603;SDS011;11469;49.024;8.246;2022-11-03T02:05:52;12.38;;;2.90;;
22603;SDS011;11469;49.024;8.246;2022-11-03T02:08:20;8.85;;;3.38;;
22603;SDS011;11469;49.024;8.246;2022-11-03T02:10:50;15.20;;;3.45;;
22603;SDS011;11469;49.024;8.246;2022-11-03T02:13:19;10.38;;;3.90;;
22603;SDS011;11469;49.024;8.246;2022-11-03T02:15:47;14.27;;;3.60;;
22603;SDS011;11469;49.024;8.246;2022-11-03T02:18:14;15.93;;;3.20;;
22603;SDS011;11469;49.024;8.246;2022-11-03T02:20:42;11.27;;;4.15;;
22603;SDS011;11469;49.024;8.246;2022-11-03T02:26:07;10.90;;;4.15;;
22603;SDS011;11469;49.024;8.246;2022-11-03T02:28:36;12.60;;;3.70;;
22603;SDS011;11469;49.024;8.246;2022-11-03T02:36:52;11.63;;;3.72;;
22603;SDS011;11469;49.024;8.246;2022-11-03T02:39:33;8.55;;;3.35;;
22603;SDS011;11469;49.024;8.246;2022-11-03T02:42:03;11.77;;;3.30;;
22603;SDS011;11469;49.024;8.246;2022-11-03T02:44:31;10.43;;;3.80;;
22603;SDS011;11469;49.024;8.246;2022-11-03T02:46:58;16.17;;;4.22;;
22603;SDS011;11469;49.024;8.246;2022-11-03T02:49:26;18.27;;;4.70;;
22603;SDS011;11469;49.024;8.246;2022-11-03T02:51:59;17.80;;;4.53;;
22603;SDS011;11469;49.024;8.246;2022-11-03T02:54:30;12.95;;;3.90;;
22603;SDS011;11469;49.024;8.246;2022-11-03T02:57:13;15.18;;;4.72;;
22603;SDS011;11469;49.024;8.246;2022-11-03T02:59:44;9.50;;;3.60;;
22603;SDS011;11469;49.024;8.246;2022-11-03T03:02:15;22.35;;;4.38;;
22603;SDS011;11469;49.024;8.246;2022-11-03T03:04:50;14.55;;;4.32;;
22603;SDS011;11469;49.024;8.246;2022-11-03T03:07:20;20.42;;;4.97;;
22603;SDS011;11469;49.024;8.246;2022-11-03T03:12:29;16.48;;;5.07;;
22603;SDS011;11469;49.024;8.246;2022-11-03T03:14:58;20.27;;;6.07;;
22603;SDS011;11469;49.024;8.246;2022-11-03T03:17:48;23.13;;;6.18;;
22603;SDS011;11469;49.024;8.246;2022-11-03T03:22:54;14.70;;;4.35;;
22603;SDS011;11469;49.024;8.246;2022-11-03T03:25:37;26.45;;;5.82;;
22603;SDS011;11469;49.024;8.246;2022-11-03T03:28:25;13.65;;;6.43;;
22603;SDS011;11469;49.024;8.246;2022-11-03T03:30:56;15.70;;;5.72;;
22603;SDS011;11469;49.024;8.246;2022-11-03T03:33:25;17.35;;;5.75;;
22603;SDS011;11469;49.024;8.246;2022-11-03T03:35:54;14.00;;;6.07;;
22603;SDS011;11469;49.024;8.246;2022-11-03T03:38:25;19.10;;;5.95;;
22603;SDS011;11469;49.024;8.246;2022-11-03T03:40:54;20.58;;;6.05;;
22603;SDS011;11469;49.024;8.246;2022-11-03T03:43:21;14.85;;;5.50;;
22603;SDS011;11469;49.024;8.246;2022-11-03T03:45:50;19.25;;;6.07;;
22603;SDS011;11469;49.024;8.246;2022-11-03T03:48:19;15.95;;;5.47;;
22603;SDS011;11469;49.024;8.246;2022-11-03T03:50:45;13.60;;;6.32;;
22603;SDS011;11469;49.024;8.246;2022-11-03T03:53:13;21.15;;;7.22;;
22603;SDS011;11469;49.024;8.246;2022-11-03T03:55:41;20.33;;;7.13;;
22603;SDS011;11469;49.024;8.246;2022-11-03T03:58:09;32.53;;;11.35;;
22603;SDS011;11469;49.024;8.246;2022-11-03T04:00:37;15.88;;;7.20;;
22603;SDS011;11469;49.024;8.246;2022-11-03T04:03:04;20.42;;;6.68;;
22603;SDS011;11469;49.024;8.246;2022-11-03T04:05:31;15.63;;;6.00;;
22603;SDS011;11469;49.024;8.246;2022-11-03T04:07:57;21.02;;;8.82;;
22603;SDS011;11469;49.024;8.246;2022-11-03T04:10:22;17.70;;;6.15;;
22603;SDS011;11469;49.024;8.246;2022-11-03T04:12:48;26.05;;;7.45;;
22603;SDS011;11469;49.024;8.246;2022-11-03T04:15:33;15.70;;;6.32;;
22603;SDS011;11469;49.024;8.246;2022-11-03T04:18:19;19.30;;;6.22;;
22603;SDS011;11469;49.024;8.246;2022-11-03T04:21:04;16.60;;;6.00;;
22603;SDS011;11469;49.024;8.246;2022-11-03T04:26:15;19.70;;;6.97;;
22603;SDS011;11469;49.024;8.246;2022-11-03T04:28:43;20.77;;;6.20;;
22603;SDS011;11469;49.024;8.246;2022-11-03T04:31:13;23.73;;;6.20;;
22603;SDS011;11469;49.024;8.246;2022-11-03T04:33:40;16.35;;;5.63;;
22603;SDS011;11469;49.024;8.246;2022-11-03T04:36:10;14.65;;;5.20;;
22603;SDS011;11469;49.024;8.246;2022-11-03T04:38:47;9.55;;;4.95;;
22603;SDS011;11469;49.024;8.246;2022-11-03T04:41:15;17.60;;;4.78;;
22603;SDS011;11469;49.024;8.246;2022-11-03T04:43:42;9.93;;;4.15;;
22603;SDS011;11469;49.024;8.246;2022-11-03T04:46:10;22.58;;;4.47;;
22603;SDS011;11469;49.024;8.246;2022-11-03T04:48:37;8.52;;;3.88;;
22603;SDS011;11469;49.024;8.246;2022-11-03T04:51:10;13.40;;;5.18;;
22603;SDS011;11469;49.024;8.246;2022-11-03T04:53:41;7.60;;;4.22;;
22603;SDS011;11469;49.024;8.246;2022-11-03T04:56:17;6.45;;;3.70;;
22603;SDS011;11469;49.024;8.246;2022-11-03T04:58:45;8.48;;;3.80;;
22603;SDS011;11469;49.024;8.246;2022-11-03T05:01:12;10.38;;;4.18;;
22603;SDS011;11469;49.024;8.246;2022-11-03T05:03:40;8.20;;;3.97;;
22603;SDS011;11469;49.024;8.246;2022-11-03T05:06:10;19.67;;;6.88;;
22603;SDS011;11469;49.024;8.246;2022-11-03T05:08:41;17.63;;;4.75;;
22603;SDS011;11469;49.024;8.246;2022-11-03T05:11:11;7.03;;;3.97;;
22603;SDS011;11469;49.024;8.246;2022-11-03T05:14:03;9.90;;;3.92;;
22603;SDS011;11469;49.024;8.246;2022-11-03T05:16:38;12.75;;;3.58;;
22603;SDS011;11469;49.024;8.246;2022-11-03T05:19:04;10.18;;;3.33;;
22603;SDS011;11469;49.024;8.246;2022-11-03T05:21:53;9.93;;;3.22;;
22603;SDS011;11469;49.024;8.246;2022-11-03T05:24:22;6.90;;;3.45;;
22603;SDS011;11469;49.024;8.246;2022-11-03T05:26:50;12.50;;;3.50;;
22603;SDS011;11469;49.024;8.246;2022-11-03T05:29:33;10.07;;;4.00;;
22603;SDS011;11469;49.024;8.246;2022-11-03T05:32:00;13.13;;;4.50;;
22603;SDS011;11469;49.024;8.246;2022-11-03T05:36:55;17.10;;;4.57;;
22603;SDS011;11469;49.024;8.246;2022-11-03T05:39:29;11.38;;;4.32;;
22603;SDS011;11469;49.024;8.246;2022-11-03T05:41:59;15.10;;;5.60;;
22603;SDS011;11469;49.024;8.246;2022-11-03T05:46:58;9.93;;;5.00;;
22603;SDS011;11469;49.024;8.246;2022-11-03T05:49:26;11.60;;;5.20;;
22603;SDS011;11469;49.024;8.246;2022-11-03T05:51:51;15.52;;;4.85;;
22603;SDS011;11469;49.024;8.246;2022-11-03T05:54:24;9.73;;;5.20;;
22603;SDS011;11469;49.024;8.246;2022-11-03T05:56:54;17.17;;;4.15;;
22603;SDS011;11469;49.024;8.246;2022-11-03T05:59:22;12.38;;;3.90;;
22603;SDS011;11469;49.024;8.246;2022-11-03T06:01:51;10.35;;;3.78;;
22603;SDS011;11469;49.024;8.246;2022-11-03T06:04:23;7.60;;;3.47;;
22603;SDS011;11469;49.024;8.246;2022-11-03T06:07:15;8.68;;;3.90;;
22603;SDS011;11469;49.024;8.246;2022-11-03T06:09:51;15.85;;;7.28;;
22603;SDS011;11469;49.024;8.246;2022-11-03T06:12:17;9.75;;;4.85;;
22603;SDS011;11469;49.024;8.246;2022-11-03T06:14:44;7.68;;;3.72;;
22603;SDS011;11469;49.024;8.246;2022-11-03T06:17:26;8.68;;;4.53;;
22603;SDS011;11469;49.024;8.246;2022-11-03T06:19:53;12.40;;;5.07;;
22603;SDS011;11469;49.024;8.246;2022-11-03T06:22:34;16.23;;;5.65;;
22603;SDS011;11469;49.024;8.246;2022-11-03T06:27:44;11.60;;;5.22;;
22603;SDS011;11469;49.024;8.246;2022-11-03T06:32:52;11.68;;;4.93;;
22603;SDS011;11469;49.024;8.246;2022-11-03T06:35:21;10.05;;;4.55;;
22603;SDS011;11469;49.024;8.246;2022-11-03T06:37:47;12.27;;;4.63;;
22603;SDS011;11469;49.024;8.246;2022-11-03T06:42:39;13.20;;;5.78;;
22603;SDS011;11469;49.024;8.246;2022-11-03T06:45:16;15.85;;;9.27;;
22603;SDS011;11469;49.024;8.246;2022-11-03T06:47:44;18.88;;;6.50;;
22603;SDS011;11469;49.024;8.246;2022-11-03T06:52:58;15.88;;;6.90;;
22603;SDS011;11469;49.024;8.246;2022-11-03T06:55:28;16.50;;;6.88;;
22603;SDS011;11469;49.024;8.246;2022-11-03T06:58:15;14.30;;;5.10;;
22603;SDS011;11469;49.024;8.246;2022-11-03T07:00:51;17.98;;;5.25;;
22603;SDS011;11469;49.024;8.246;2022-11-03T07:03:29;7.93;;;3.95;;
22603;SDS011;11469;49.024;8.246;2022-11-03T07:06:19;9.32;;;4.03;;
22603;SDS011;11469;49.024;8.246;2022-11-03T07:08:50;8.98;;;4.68;;
22603;SDS011;11469;49.024;8.246;2022-11-03T07:14:11;20.40;;;5.47;;
22603;SDS011;11469;49.024;8.246;2022-11-03T07:16:41;12.93;;;5.43;;
22603;SDS011;11469;49.024;8.246;2022-11-03T07:19:22;15.60;;;7.65;;
22603;SDS011;11469;49.024;8.246;2022-11-03T07:22:00;11.88;;;6.10;;
22603;SDS011;11469;49.024;8.246;2022-11-03T07:24:29;14.77;;;5.38;;
22603;SDS011;11469;49.024;8.246;2022-11-03T07:29:32;16.60;;;5.50;;
22603;SDS011;11469;49.024;8.246;2022-11-03T07:31:58;9.63;;;4.47;;
22603;SDS011;11469;49.024;8.246;2022-11-03T07:34:25;23.63;;;4.97;;
22603;SDS011;11469;49.024;8.246;2022-11-03T07:36:55;10.05;;;4.57;;
22603;SDS011;11469;49.024;8.246;2022-11-03T07:39:22;15.57;;;5.13;;
22603;SDS011;11469;49.024;8.246;2022-11-03T07:41:47;15.18;;;6.78;;
22603;SDS011;11469;49.024;8.246;2022-11-03T07:44:17;25.38;;;7.97;;
22603;SDS011;11469;49.024;8.246;2022-11-03T07:46:47;11.70;;;6.20;;
22603;SDS011;11469;49.024;8.246;2022-11-03T07:49:22;14.32;;;5.05;;
22603;SDS011;11469;49.024;8.246;2022-11-03T07:51:51;8.43;;;4.63;;
22603;SDS011;11469;49.024;8.246;2022-11-03T07:54:18;13.50;;;5.03;;
22603;SDS011;11469;49.024;8.246;2022-11-03T07:56:49;11.77;;;5.15;;
22603;SDS011;11469;49.024;8.246;2022-11-03T07:59:20;16.15;;;8.45;;
22603;SDS011;11469;49.024;8.246;2022-11-03T08:01:52;25.83;;;9.27;;
22603;SDS011;11469;49.024;8.246;2022-11-03T08:04:20;15.75;;;8.55;;
22603;SDS011;11469;49.024;8.246;2022-11-03T08:06:48;17.02;;;6.82;;
22603;SDS011;11469;49.024;8.246;2022-11-03T08:09:15;20.73;;;5.57;;
22603;SDS011;11469;49.024;8.246;2022-11-03T08:11:41;18.88;;;6.32;;
22603;SDS011;11469;49.024;8.246;2022-11-03T08:14:06;18.00;;;5.60;;
22603;SDS011;11469;49.024;8.246;2022-11-03T08:16:31;15.77;;;4.85;;
22603;SDS011;11469;49.024;8.246;2022-11-03T08:18:57;18.38;;;7.10;;
22603;SDS011;11469;49.024;8.246;2022-11-03T08:21:22;15.23;;;6.70;;
22603;SDS011;11469;49.024;8.246;2022-11-03T08:23:48;11.10;;;5.95;;
22603;SDS011;11469;49.024;8.246;2022-11-03T08:26:13;11.50;;;5.60;;
22603;SDS011;11469;49.024;8.246;2022-11-03T08:28:39;21.38;;;7.22;;
22603;SDS011;11469;49.024;8.246;2022-11-03T08:31:04;15.95;;;6.03;;
22603;SDS011;11469;49.024;8.246;2022-11-03T08:33:31;17.02;;;6.40;;
22603;SDS011;11469;49.024;8.246;2022-11-03T08:35:57;11.48;;;7.00;;
22603;SDS011;11469;49.024;8.246;2022-11-03T08:38:23;18.00;;;7.60;;
22603;SDS011;11469;49.024;8.246;2022-11-03T08:40:48;13.32;;;6.40;;
22603;SDS011;11469;49.024;8.246;2022-11-03T08:43:13;14.57;;;7.30;;
22603;SDS011;11469;49.024;8.246;2022-11-03T08:45:39;15.88;;;7.05;;
22603;SDS011;11469;49.024;8.246;2022-11-03T08:48:04;16.55;;;7.07;;
22603;SDS011;11469;49.024;8.246;2022-11-03T08:50:30;17.17;;;7.05;;
22603;SDS011;11469;49.024;8.246;2022-11-03T08:52:55;11.25;;;6.40;;
22603;SDS011;11469;49.024;8.246;2022-11-03T08:55:21;11.48;;;6.53;;
22603;SDS011;11469;49.024;8.246;2022-11-03T08:57:46;11.45;;;6.35;;
22603;SDS011;11469;49.024;8.246;2022-11-03T09:00:12;11.73;;;6.60;;
22603;SDS011;11469;49.024;8.246;2022-11-03T09:02:38;17.23;;;6.35;;
22603;SDS011;11469;49.024;8.246;2022-11-03T09:05:03;14.55;;;6.50;;
22603;SDS011;11469;49.024;8.246;2022-11-03T09:07:30;13.07;;;7.85;;
22603;SDS011;11469;49.024;8.246;2022-11-03T09:09:56;12.95;;;7.13;;
22603;SDS011;11469;49.024;8.246;2022-11-03T09:12:21;13.80;;;7.28;;
22603;SDS011;11469;49.024;8.246;2022-11-03T09:14:46;15.10;;;5.53;;
22603;SDS011;11469;49.024;8.246;2022-11-03T09:17:12;24.42;;;10.13;;
22603;SDS011;11469;49.024;8.246;2022-11-03T09:19:37;13.07;;;7.00;;
22603;SDS011;11469;49.024;8.246;2022-11-03T09:22:03;11.68;;;5.90;;
22603;SDS011;11469;49.024;8.246;2022-11-03T09:24:28;16.35;;;5.07;;
22603;SDS011;11469;49.024;8.246;2022-11-03T09:26:54;16.38;;;6.03;;
22603;SDS011;11469;49.024;8.246;2022-11-03T09:29:20;14.95;;;5.97;;
22603;SDS011;11469;49.024;8.246;2022-11-03T09:31:45;10.40;;;5.18;;
22603;SDS011;11469;49.024;8.246;2022-11-03T09:34:11;8.95;;;5.22;;
22603;SDS011;11469;49.024;8.246;2022-11-03T09:36:36;11.05;;;5.43;;
22603;SDS011;11469;49.024;8.246;2022-11-03T09:39:02;15.50;;;4.80;;
22603;SDS011;11469;49.024;8.246;2022-11-03T09:41:28;12.40;;;5.93;;
22603;SDS011;11469;49.024;8.246;2022-11-03T09:43:55;11.40;;;5.40;;
22603;SDS011;11469;49.024;8.246;2022-11-03T09:46:22;21.17;;;8.15;;
22603;SDS011;11469;49.024;8.246;2022-11-03T09:48:48;17.15;;;7.85;;
22603;SDS011;11469;49.024;8.246;2022-11-03T09:51:16;14.57;;;7.32;;
22603;SDS011;11469;49.024;8.246;2022-11-03T09:53:44;13.35;;;6.05;;
22603;SDS011;11469;49.024;8.246;2022-11-03T09:56:09;16.40;;;5.75;;
22603;SDS011;11469;49.024;8.246;2022-11-03T09:58:35;13.90;;;5.60;;
22603;SDS011;11469;49.024;8.246;2022-11-03T10:01:00;12.50;;;6.22;;
22603;SDS011;11469;49.024;8.246;2022-11-03T10:03:26;14.75;;;7.03;;
22603;SDS011;11469;49.024;8.246;2022-11-03T10:05:53;11.15;;;5.70;;
22603;SDS011;11469;49.024;8.246;2022-11-03T10:08:21;16.20;;;6.78;;
22603;SDS011;11469;49.024;8.246;2022-11-03T10:10:55;23.08;;;9.45;;
22603;SDS011;11469;49.024;8.246;2022-11-03T10:13:28;18.70;;;7.80;;
22603;SDS011;11469;49.024;8.246;2022-11-03T10:15:56;19.53;;;8.53;;
22603;SDS011;11469;49.024;8.246;2022-11-03T10:18:23;14.95;;;7.50;;
22603;SDS011;11469;49.024;8.246;2022-11-03T10:20:51;12.43;;;6.53;;
22603;SDS011;11469;49.024;8.246;2022-11-03T10:23:17;14.30;;;6.25;;
22603;SDS011;11469;49.024;8.246;2022-11-03T10:25:43;50.35;;;22.38;;
22603;SDS011;11469;49.024;8.246;2022-11-03T10:28:16;19.63;;;10.18;;
22603;SDS011;11469;49.024;8.246;2022-11-03T10:30:56;12.07;;;5.80;;
22603;SDS011;11469;49.024;8.246;2022-11-03T10:33:26;13.93;;;5.73;;
22603;SDS011;11469;49.024;8.246;2022-11-03T10:35:57;11.63;;;5.70;;
22603;SDS011;11469;49.024;8.246;2022-11-03T10:38:46;12.93;;;6.10;;
22603;SDS011;11469;49.024;8.246;2022-11-03T10:41:15;14.95;;;6.97;;
22603;SDS011;11469;49.024;8.246;2022-11-03T10:43:54;15.15;;;6.00;;
22603;SDS011;11469;49.024;8.246;2022-11-03T10:46:35;16.15;;;6.65;;
22603;SDS011;11469;49.024;8.246;2022-11-03T10:49:07;12.52;;;6.18;;
22603;SDS011;11469;49.024;8.246;2022-11-03T10:51:36;18.02;;;7.22;;
22603;SDS011;11469;49.024;8.246;2022-11-03T10:54:02;14.60;;;6.90;;
22603;SDS011;11469;49.024;8.246;2022-11-03T10:56:29;15.63;;;7.43;;
22603;SDS011;11469;49.024;8.246;2022-11-03T10:58:56;11.52;;;6.30;;
22603;SDS011;11469;49.024;8.246;2022-11-03T11:01:22;10.32;;;6.20;;
22603;SDS011;11469;49.024;8.246;2022-11-03T11:03:48;16.92;;;6.95;;
22603;SDS011;11469;49.024;8.246;2022-11-03T11:06:17;23.30;;;6.43;;
22603;SDS011;11469;49.024;8.246;2022-11-03T11:08:51;17.63;;;6.60;;
22603;SDS011;11469;49.024;8.246;2022-11-03T11:11:20;15.00;;;5.68;;
22603;SDS011;11469;49.024;8.246;2022-11-03T11:19:15;18.50;;;7.28;;
22603;SDS011;11469;49.024;8.246;2022-11-03T11:24:09;18.30;;;6.53;;
22603;SDS011;11469;49.024;8.246;2022-11-03T11:26:35;12.25;;;5.32;;
22603;SDS011;11469;49.024;8.246;2022-11-03T11:31:34;12.55;;;5.28;;
22603;SDS011;11469;49.024;8.246;2022-11-03T11:36:37;16.67;;;5.07;;
22603;SDS011;11469;49.024;8.246;2022-11-03T11:39:08;17.20;;;4.82;;
22603;SDS011;11469;49.024;8.246;2022-11-03T11:52:47;12.45;;;5.38;;
22603;SDS011;11469;49.024;8.246;2022-11-03T11:55:16;13.05;;;4.97;;
22603;SDS011;11469;49.024;8.246;2022-11-03T11:58:03;14.27;;;4.72;;
22603;SDS011;11469;49.024;8.246;2022-11-03T12:00:37;16.57;;;4.83;;
22603;SDS011;11469;49.024;8.246;2022-11-03T12:03:14;12.20;;;4.88;;
22603;SDS011;11469;49.024;8.246;2022-11-03T12:05:40;17.38;;;5.10;;
22603;SDS011;11469;49.024;8.246;2022-11-03T12:08:16;14.70;;;5.22;;
22603;SDS011;11469;49.024;8.246;2022-11-03T12:10:50;15.25;;;4.78;;
22603;SDS011;11469;49.024;8.246;2022-11-03T12:16:27;11.80;;;4.55;;
22603;SDS011;11469;49.024;8.246;2022-11-03T12:21:59;18.58;;;5.50;;
22603;SDS011;11469;49.024;8.246;2022-11-03T12:24:25;12.63;;;5.45;;
22603;SDS011;11469;49.024;8.246;2022-11-03T12:26:57;9.40;;;4.40;;
22603;SDS011;11469;49.024;8.246;2022-11-03T12:29:24;15.52;;;5.07;;
22603;SDS011;11469;49.024;8.246;2022-11-03T12:31:50;15.35;;;5.20;;
22603;SDS011;11469;49.024;8.246;2022-11-03T12:34:16;11.25;;;5.00;;
22603;SDS011;11469;49.024;8.246;2022-11-03T12:36:42;15.55;;;5.07;;
22603;SDS011;11469;49.024;8.246;2022-11-03T12:39:09;15.73;;;5.65;;
22603;SDS011;11469;49.024;8.246;2022-11-03T12:41:34;13.25;;;4.88;;
22603;SDS011;11469;49.024;8.246;2022-11-03T12:44:00;17.90;;;4.72;;
22603;SDS011;11469;49.024;8.246;2022-11-03T12:46:25;21.90;;;5.30;;
22603;SDS011;11469;49.024;8.246;2022-11-03T12:48:51;21.75;;;8.10;;
22603;SDS011;11469;49.024;8.246;2022-11-03T12:51:17;17.52;;;5.82;;
22603;SDS011;11469;49.024;8.246;2022-11-03T12:53:44;13.52;;;4.43;;
22603;SDS011;11469;49.024;8.246;2022-11-03T12:56:12;10.88;;;5.38;;
22603;SDS011;11469;49.024;8.246;2022-11-03T12:58:39;15.60;;;6.38;;
22603;SDS011;11469;49.024;8.246;2022-11-03T13:01:05;24.08;;;11.98;;
22603;SDS011;11469;49.024;8.246;2022-11-03T13:03:31;15.20;;;4.70;;
22603;SDS011;11469;49.024;8.246;2022-11-03T13:05:58;24.40;;;6.07;;
22603;SDS011;11469;49.024;8.246;2022-11-03T13:08:24;12.43;;;4.95;;
22603;SDS011;11469;49.024;8.246;2022-11-03T13:10:49;13.68;;;4.88;;
22603;SDS011;11469;49.024;8.246;2022-11-03T13:13:18;13.95;;;4.57;;
22603;SDS011;11469;49.024;8.246;2022-11-03T13:15:44;16.70;;;4.80;;
22603;SDS011;11469;49.024;8.246;2022-11-03T13:18:09;15.13;;;4.85;;
22603;SDS011;11469;49.024;8.246;2022-11-03T13:20:35;18.90;;;4.93;;
22603;SDS011;11469;49.024;8.246;2022-11-03T13:23:01;13.77;;;5.50;;
22603;SDS011;11469;49.024;8.246;2022-11-03T13:25:27;16.80;;;5.95;;
22603;SDS011;11469;49.024;8.246;2022-11-03T13:27:53;19.13;;;5.93;;
22603;SDS011;11469;49.024;8.246;2022-11-03T13:30:19;17.02;;;6.05;;
22603;SDS011;11469;49.024;8.246;2022-11-03T13:32:45;21.58;;;5.68;;
22603;SDS011;11469;49.024;8.246;2022-11-03T13:35:11;20.50;;;6.03;;
22603;SDS011;11469;49.024;8.246;2022-11-03T13:37:37;19.08;;;7.15;;
22603;SDS011;11469;49.024;8.246;2022-11-03T13:40:03;22.25;;;6.30;;
22603;SDS011;11469;49.024;8.246;2022-11-03T13:42:29;19.25;;;6.50;;
22603;SDS011;11469;49.024;8.246;2022-11-03T13:44:54;21.40;;;6.93;;
22603;SDS011;11469;49.024;8.246;2022-11-03T13:47:21;22.85;;;7.20;;
22603;SDS011;11469;49.024;8.246;2022-11-03T13:49:46;17.60;;;7.80;;
22603;SDS011;11469;49.024;8.246;2022-11-03T13:52:12;18.63;;;6.32;;
22603;SDS011;11469;49.024;8.246;2022-11-03T13:54:37;20.15;;;6.75;;
22603;SDS011;11469;49.024;8.246;2022-11-03T13:57:02;20.23;;;6.78;;
22603;SDS011;11469;49.024;8.246;2022-11-03T13:59:28;17.52;;;6.35;;
22603;SDS011;11469;49.024;8.246;2022-11-03T14:01:53;27.40;;;8.27;;
22603;SDS011;11469;49.024;8.246;2022-11-03T14:04:19;19.38;;;8.00;;
22603;SDS011;11469;49.024;8.246;2022-11-03T14:06:45;40.20;;;15.02;;
22603;SDS011;11469;49.024;8.246;2022-11-03T14:09:10;18.83;;;6.35;;
22603;SDS011;11469;49.024;8.246;2022-11-03T14:11:36;25.70;;;5.88;;
22603;SDS011;11469;49.024;8.246;2022-11-03T14:14:20;20.75;;;8.23;;
22603;SDS011;11469;49.024;8.246;2022-11-03T14:16:45;17.67;;;6.05;;
22603;SDS011;11469;49.024;8.246;2022-11-03T14:19:10;13.40;;;5.82;;
22603;SDS011;11469;49.024;8.246;2022-11-03T14:21:36;24.25;;;7.10;;
22603;SDS011;11469;49.024;8.246;2022-11-03T14:24:03;30.48;;;8.73;;
22603;SDS011;11469;49.024;8.246;2022-11-03T14:26:29;17.77;;;6.75;;
22603;SDS011;11469;49.024;8.246;2022-11-03T14:28:55;25.90;;;6.00;;
22603;SDS011;11469;49.024;8.246;2022-11-03T14:31:20;24.27;;;6.13;;
22603;SDS011;11469;49.024;8.246;2022-11-03T14:33:45;23.90;;;6.45;;
22603;SDS011;11469;49.024;8.246;2022-11-03T14:36:11;18.63;;;6.25;;
22603;SDS011;11469;49.024;8.246;2022-11-03T14:38:37;14.68;;;6.97;;
22603;SDS011;11469;49.024;8.246;2022-11-03T14:41:02;16.00;;;6.80;;
22603;SDS011;11469;49.024;8.246;2022-11-03T14:43:46;25.63;;;10.15;;
22603;SDS011;11469;49.024;8.246;2022-11-03T14:46:11;23.05;;;8.38;;
22603;SDS011;11469;49.024;8.246;2022-11-03T14:48:37;21.65;;;8.13;;
22603;SDS011;11469;49.024;8.246;2022-11-03T14:51:02;22.63;;;7.88;;
22603;SDS011;11469;49.024;8.246;2022-11-03T14:53:28;21.80;;;7.93;;
22603;SDS011;11469;49.024;8.246;2022-11-03T14:55:53;20.75;;;7.38;;
22603;SDS011;11469;49.024;8.246;2022-11-03T14:58:19;22.77;;;9.88;;
22603;SDS011;11469;49.024;8.246;2022-11-03T15:00:44;23.08;;;8.15;;
22603;SDS011;11469;49.024;8.246;2022-11-03T15:03:10;26.17;;;9.18;;
22603;SDS011;11469;49.024;8.246;2022-11-03T15:05:35;25.98;;;7.18;;
22603;SDS011;11469;49.024;8.246;2022-11-03T15:08:10;14.18;;;5.55;;
22603;SDS011;11469;49.024;8.246;2022-11-03T15:10:40;16.00;;;7.07;;
22603;SDS011;11469;49.024;8.246;2022-11-03T15:13:05;18.63;;;7.43;;
22603;SDS011;11469;49.024;8.246;2022-11-03T15:15:31;22.02;;;8.07;;
22603;SDS011;11469;49.024;8.246;2022-11-03T15:17:56;17.23;;;6.38;;
22603;SDS011;11469;49.024;8.246;2022-11-03T15:20:22;22.73;;;9.20;;
22603;SDS011;11469;49.024;8.246;2022-11-03T15:22:47;23.67;;;9.65;;
22603;SDS011;11469;49.024;8.246;2022-11-03T15:25:13;18.52;;;6.97;;
22603;SDS011;11469;49.024;8.246;2022-11-03T15:27:38;15.85;;;6.20;;
22603;SDS011;11469;49.024;8.246;2022-11-03T15:30:07;20.42;;;9.35;;
22603;SDS011;11469;49.024;8.246;2022-11-03T15:32:33;15.98;;;8.27;;
22603;SDS011;11469;49.024;8.246;2022-11-03T15:34:59;21.30;;;9.05;;
22603;SDS011;11469;49.024;8.246;2022-11-03T15:37:25;36.30;;;12.43;;
22603;SDS011;11469;49.024;8.246;2022-11-03T15:39:50;31.50;;;13.75;;
22603;SDS011;11469;49.024;8.246;2022-11-03T15:42:16;25.05;;;10.68;;
22603;SDS011;11469;49.024;8.246;2022-11-03T15:44:42;24.25;;;9.38;;
22603;SDS011;11469;49.024;8.246;2022-11-03T15:47:07;37.83;;;16.23;;
22603;SDS011;11469;49.024;8.246;2022-11-03T15:49:33;43.35;;;18.40;;
22603;SDS011;11469;49.024;8.246;2022-11-03T15:51:58;25.25;;;10.27;;
22603;SDS011;11469;49.024;8.246;2022-11-03T15:54:23;21.15;;;10.23;;
22603;SDS011;11469;49.024;8.246;2022-11-03T15:56:49;22.15;;;9.13;;
22603;SDS011;11469;49.024;8.246;2022-11-03T15:59:14;29.08;;;12.02;;